| Date | Time | Temp. (oF) | Dew Point (oF) | Rel. Hum. (%) | Press. (in.) | Wind Dir. | Wind Speed (mph) | Hourly Rainfall (in.) |
|
|---|---|---|---|---|---|---|---|---|---|
| 1 | 11/11 | 00:00 | 53 | 49 | 89 | 29.74 | W | 3 | 0.00 |
| 2 | 11/10 | 23:00 | 53 | 49 | 89 | 29.74 | W | 4 | 0.00 |
| 3 | 11/10 | 22:00 | 53 | 49 | 89 | 29.75 | ESE | 5 | 0.01 |
| 4 | 11/10 | 21:00 | 53 | 49 | 89 | 29.76 | NE | 9 | 0.01 |
| 5 | 11/10 | 20:00 | 53 | 49 | 89 | 29.76 | NNE | 11 | 0.03 |
| 6 | 11/10 | 19:00 | 54 | 50 | 89 | 29.77 | NNE | 7 | 0.13 |
| 7 | 11/10 | 18:00 | 56 | 52 | 88 | 29.76 | N | 2 | 0.05 |
| 8 | 11/10 | 17:00 | 56 | 52 | 88 | 29.75 | SE | 5 | 0.04 |
| 9 | 11/10 | 16:00 | 57 | 53 | 88 | 29.76 | SE | 3 | 0.02 |
| 10 | 11/10 | 15:00 | 57 | 53 | 88 | 29.77 | SE | 9 | 0.03 |
| 11 | 11/10 | 14:00 | 57 | 53 | 89 | 29.80 | SE | 5 | 0.00 |
| 12 | 11/10 | 13:00 | 57 | 53 | 88 | 29.82 | E | 4 | 0.00 |
| 13 | 11/10 | 12:00 | 56 | 52 | 88 | 29.87 | E | 6 | 0.05 |
| 14 | 11/10 | 11:00 | 56 | 52 | 88 | 29.91 | E | 5 | 0.01 |
| 15 | 11/10 | 10:00 | 55 | 51 | 88 | 29.94 | SE | 6 | 0.00 |
| 16 | 11/10 | 09:00 | 52 | 48 | 88 | 29.97 | E | 4 | 0.02 |
| 17 | 11/10 | 08:00 | 51 | 47 | 89 | 30.00 | NNE | 2 | 0.02 |
| 18 | 11/10 | 07:00 | 49 | 45 | 89 | 30.00 | ENE | 4 | 0.00 |
| 19 | 11/10 | 06:00 | 49 | 45 | 89 | 30.02 | E | 5 | 0.03 |
| 20 | 11/10 | 05:00 | 49 | 45 | 89 | 30.05 | ENE | 0 | 0.04 |
| 21 | 11/10 | 04:00 | 49 | 45 | 89 | 30.06 | NE | 4 | 0.08 |
| 22 | 11/10 | 03:00 | 49 | 45 | 87 | 30.09 | ENE | 7 | 0.07 |
| 23 | 11/10 | 02:00 | 50 | 43 | 79 | 30.12 | ENE | 1 | 0.02 |
| 24 | 11/10 | 01:00 | 53 | 39 | 61 | 30.16 | ENE | 4 | 0.00 |